sensor_id;sensor_type;location;lat;lon;timestamp;temperature;humidity
19168;DHT22;9716;53.114;18.040;2023-05-10T00:00:09;10.40;80.00
19168;DHT22;9716;53.114;18.040;2023-05-10T00:02:57;10.40;80.00
19168;DHT22;9716;53.114;18.040;2023-05-10T00:05:28;10.40;80.00
19168;DHT22;9716;53.114;18.040;2023-05-10T00:07:57;10.40;80.00
19168;DHT22;9716;53.114;18.040;2023-05-10T00:10:25;10.40;80.00
19168;DHT22;9716;53.114;18.040;2023-05-10T00:12:53;10.40;80.00
19168;DHT22;9716;53.114;18.040;2023-05-10T00:15:23;10.40;80.00
19168;DHT22;9716;53.114;18.040;2023-05-10T00:17:51;10.40;80.00
19168;DHT22;9716;53.114;18.040;2023-05-10T00:20:20;10.40;80.00
19168;DHT22;9716;53.114;18.040;2023-05-10T00:22:48;10.40;80.00
19168;DHT22;9716;53.114;18.040;2023-05-10T00:25:16;10.30;80.00
19168;DHT22;9716;53.114;18.040;2023-05-10T00:27:45;10.40;80.10
19168;DHT22;9716;53.114;18.040;2023-05-10T00:30:13;10.30;80.20
19168;DHT22;9716;53.114;18.040;2023-05-10T00:32:44;10.30;80.40
19168;DHT22;9716;53.114;18.040;2023-05-10T00:35:12;10.30;80.50
19168;DHT22;9716;53.114;18.040;2023-05-10T00:37:40;10.20;80.50
19168;DHT22;9716;53.114;18.040;2023-05-10T00:40:09;10.20;80.60
19168;DHT22;9716;53.114;18.040;2023-05-10T00:42:38;10.10;80.60
19168;DHT22;9716;53.114;18.040;2023-05-10T00:45:07;10.10;80.90
19168;DHT22;9716;53.114;18.040;2023-05-10T00:47:36;10.00;81.20
19168;DHT22;9716;53.114;18.040;2023-05-10T00:50:06;10.00;81.80
19168;DHT22;9716;53.114;18.040;2023-05-10T00:52:37;9.90;83.30
19168;DHT22;9716;53.114;18.040;2023-05-10T00:55:07;9.80;83.50
19168;DHT22;9716;53.114;18.040;2023-05-10T00:57:35;9.70;83.80
19168;DHT22;9716;53.114;18.040;2023-05-10T01:00:05;9.60;84.10
19168;DHT22;9716;53.114;18.040;2023-05-10T01:02:34;9.60;84.40
19168;DHT22;9716;53.114;18.040;2023-05-10T01:05:03;9.50;84.40
19168;DHT22;9716;53.114;18.040;2023-05-10T01:07:33;9.40;84.60
19168;DHT22;9716;53.114;18.040;2023-05-10T01:10:02;9.40;84.80
19168;DHT22;9716;53.114;18.040;2023-05-10T01:12:30;9.30;85.00
19168;DHT22;9716;53.114;18.040;2023-05-10T01:15:00;9.30;85.20
19168;DHT22;9716;53.114;18.040;2023-05-10T01:17:29;9.20;85.30
19168;DHT22;9716;53.114;18.040;2023-05-10T01:19:58;9.20;85.60
19168;DHT22;9716;53.114;18.040;2023-05-10T01:22:44;9.20;85.70
19168;DHT22;9716;53.114;18.040;2023-05-10T01:25:32;9.10;85.90
19168;DHT22;9716;53.114;18.040;2023-05-10T01:28:37;9.00;86.00
19168;DHT22;9716;53.114;18.040;2023-05-10T01:31:26;9.00;86.20
19168;DHT22;9716;53.114;18.040;2023-05-10T01:34:02;9.00;86.30
19168;DHT22;9716;53.114;18.040;2023-05-10T01:36:42;8.90;86.30
19168;DHT22;9716;53.114;18.040;2023-05-10T01:39:17;8.90;86.60
19168;DHT22;9716;53.114;18.040;2023-05-10T01:41:52;8.80;86.70
19168;DHT22;9716;53.114;18.040;2023-05-10T01:44:28;8.80;86.90
19168;DHT22;9716;53.114;18.040;2023-05-10T01:47:01;8.80;87.10
19168;DHT22;9716;53.114;18.040;2023-05-10T01:49:39;8.70;87.20
19168;DHT22;9716;53.114;18.040;2023-05-10T01:52:10;8.70;87.30
19168;DHT22;9716;53.114;18.040;2023-05-10T01:54:44;8.70;87.40
19168;DHT22;9716;53.114;18.040;2023-05-10T01:57:16;8.70;87.50
19168;DHT22;9716;53.114;18.040;2023-05-10T01:59:50;8.60;87.50
19168;DHT22;9716;53.114;18.040;2023-05-10T02:02:20;8.60;87.70
19168;DHT22;9716;53.114;18.040;2023-05-10T02:04:51;8.60;87.80
19168;DHT22;9716;53.114;18.040;2023-05-10T02:07:22;8.60;87.90
19168;DHT22;9716;53.114;18.040;2023-05-10T02:09:51;8.50;88.00
19168;DHT22;9716;53.114;18.040;2023-05-10T02:12:20;8.50;88.10
19168;DHT22;9716;53.114;18.040;2023-05-10T02:14:51;8.50;88.30
19168;DHT22;9716;53.114;18.040;2023-05-10T02:17:21;8.50;88.40
19168;DHT22;9716;53.114;18.040;2023-05-10T02:19:54;8.40;88.50
19168;DHT22;9716;53.114;18.040;2023-05-10T02:22:24;8.40;88.60
19168;DHT22;9716;53.114;18.040;2023-05-10T02:24:54;8.40;88.80
19168;DHT22;9716;53.114;18.040;2023-05-10T02:27:24;8.30;88.90
19168;DHT22;9716;53.114;18.040;2023-05-10T02:29:53;8.30;89.10
19168;DHT22;9716;53.114;18.040;2023-05-10T02:32:22;8.30;89.30
19168;DHT22;9716;53.114;18.040;2023-05-10T02:34:55;8.30;89.40
19168;DHT22;9716;53.114;18.040;2023-05-10T02:37:25;8.20;89.50
19168;DHT22;9716;53.114;18.040;2023-05-10T02:39:55;8.20;89.60
19168;DHT22;9716;53.114;18.040;2023-05-10T02:42:27;8.20;89.80
19168;DHT22;9716;53.114;18.040;2023-05-10T02:44:59;8.20;89.90
19168;DHT22;9716;53.114;18.040;2023-05-10T02:47:28;8.20;90.00
19168;DHT22;9716;53.114;18.040;2023-05-10T02:49:59;8.20;90.10
19168;DHT22;9716;53.114;18.040;2023-05-10T02:52:29;8.10;90.20
19168;DHT22;9716;53.114;18.040;2023-05-10T02:55:01;8.10;90.30
19168;DHT22;9716;53.114;18.040;2023-05-10T02:57:34;8.00;90.30
19168;DHT22;9716;53.114;18.040;2023-05-10T03:00:03;8.00;90.40
19168;DHT22;9716;53.114;18.040;2023-05-10T03:02:31;8.00;90.50
19168;DHT22;9716;53.114;18.040;2023-05-10T03:05:02;8.00;90.50
19168;DHT22;9716;53.114;18.040;2023-05-10T03:07:31;7.90;90.50
19168;DHT22;9716;53.114;18.040;2023-05-10T03:10:00;7.90;90.60
19168;DHT22;9716;53.114;18.040;2023-05-10T03:12:38;7.90;90.60
19168;DHT22;9716;53.114;18.040;2023-05-10T03:15:13;7.90;90.70
19168;DHT22;9716;53.114;18.040;2023-05-10T03:17:51;7.90;90.70
19168;DHT22;9716;53.114;18.040;2023-05-10T03:20:24;8.00;90.80
19168;DHT22;9716;53.114;18.040;2023-05-10T03:23:00;8.00;90.80
19168;DHT22;9716;53.114;18.040;2023-05-10T03:25:31;8.00;90.90
19168;DHT22;9716;53.114;18.040;2023-05-10T03:28:01;8.10;90.90
19168;DHT22;9716;53.114;18.040;2023-05-10T03:30:30;8.20;90.80
19168;DHT22;9716;53.114;18.040;2023-05-10T03:33:04;8.20;90.80
19168;DHT22;9716;53.114;18.040;2023-05-10T03:35:34;8.30;90.70
19168;DHT22;9716;53.114;18.040;2023-05-10T03:38:02;8.40;90.60
19168;DHT22;9716;53.114;18.040;2023-05-10T03:40:31;8.50;90.50
19168;DHT22;9716;53.114;18.040;2023-05-10T03:42:59;8.60;90.50
19168;DHT22;9716;53.114;18.040;2023-05-10T03:45:28;8.70;90.40
19168;DHT22;9716;53.114;18.040;2023-05-10T03:47:57;8.80;90.20
19168;DHT22;9716;53.114;18.040;2023-05-10T03:50:26;8.90;90.10
19168;DHT22;9716;53.114;18.040;2023-05-10T03:52:56;9.10;90.00
19168;DHT22;9716;53.114;18.040;2023-05-10T03:55:25;9.20;89.70
19168;DHT22;9716;53.114;18.040;2023-05-10T03:57:53;9.30;89.30
19168;DHT22;9716;53.114;18.040;2023-05-10T04:00:22;9.50;89.10
19168;DHT22;9716;53.114;18.040;2023-05-10T04:02:50;9.60;88.80
19168;DHT22;9716;53.114;18.040;2023-05-10T04:05:19;9.80;88.40
19168;DHT22;9716;53.114;18.040;2023-05-10T04:07:47;9.90;87.90
19168;DHT22;9716;53.114;18.040;2023-05-10T04:10:17;10.20;86.40
19168;DHT22;9716;53.114;18.040;2023-05-10T04:12:46;10.30;85.80
19168;DHT22;9716;53.114;18.040;2023-05-10T04:15:14;10.50;85.40
19168;DHT22;9716;53.114;18.040;2023-05-10T04:17:43;10.70;84.90
19168;DHT22;9716;53.114;18.040;2023-05-10T04:20:12;10.80;84.30
19168;DHT22;9716;53.114;18.040;2023-05-10T04:22:41;11.00;84.00
19168;DHT22;9716;53.114;18.040;2023-05-10T04:25:09;11.20;83.60
19168;DHT22;9716;53.114;18.040;2023-05-10T04:27:39;11.40;83.20
19168;DHT22;9716;53.114;18.040;2023-05-10T04:30:08;11.60;82.60
19168;DHT22;9716;53.114;18.040;2023-05-10T04:32:37;11.80;81.80
19168;DHT22;9716;53.114;18.040;2023-05-10T04:35:06;12.00;81.30
19168;DHT22;9716;53.114;18.040;2023-05-10T04:37:36;12.10;80.80
19168;DHT22;9716;53.114;18.040;2023-05-10T04:40:06;12.30;80.60
19168;DHT22;9716;53.114;18.040;2023-05-10T04:42:34;12.50;80.10
19168;DHT22;9716;53.114;18.040;2023-05-10T04:45:05;12.90;79.40
19168;DHT22;9716;53.114;18.040;2023-05-10T04:47:33;13.30;78.30
19168;DHT22;9716;53.114;18.040;2023-05-10T04:50:02;13.40;77.50
19168;DHT22;9716;53.114;18.040;2023-05-10T04:52:31;13.60;77.30
19168;DHT22;9716;53.114;18.040;2023-05-10T04:54:59;13.70;77.10
19168;DHT22;9716;53.114;18.040;2023-05-10T04:57:27;13.80;76.70
19168;DHT22;9716;53.114;18.040;2023-05-10T04:59:56;13.90;76.40
19168;DHT22;9716;53.114;18.040;2023-05-10T05:02:26;14.00;76.00
19168;DHT22;9716;53.114;18.040;2023-05-10T05:04:56;14.20;75.70
19168;DHT22;9716;53.114;18.040;2023-05-10T05:07:25;14.40;75.20
19168;DHT22;9716;53.114;18.040;2023-05-10T05:09:54;14.80;74.90
19168;DHT22;9716;53.114;18.040;2023-05-10T05:12:22;15.00;74.40
19168;DHT22;9716;53.114;18.040;2023-05-10T05:14:51;15.20;73.50
19168;DHT22;9716;53.114;18.040;2023-05-10T05:17:19;15.40;73.30
19168;DHT22;9716;53.114;18.040;2023-05-10T05:19:49;15.50;72.30
19168;DHT22;9716;53.114;18.040;2023-05-10T05:22:17;15.60;71.70
19168;DHT22;9716;53.114;18.040;2023-05-10T05:24:46;15.70;71.10
19168;DHT22;9716;53.114;18.040;2023-05-10T05:27:14;15.80;70.90
19168;DHT22;9716;53.114;18.040;2023-05-10T05:29:44;15.90;70.60
19168;DHT22;9716;53.114;18.040;2023-05-10T05:32:13;16.20;70.60
19168;DHT22;9716;53.114;18.040;2023-05-10T05:34:41;16.40;70.10
19168;DHT22;9716;53.114;18.040;2023-05-10T05:37:14;16.60;69.30
19168;DHT22;9716;53.114;18.040;2023-05-10T05:39:43;16.90;68.50
19168;DHT22;9716;53.114;18.040;2023-05-10T05:42:12;17.10;67.90
19168;DHT22;9716;53.114;18.040;2023-05-10T05:44:40;17.30;67.50
19168;DHT22;9716;53.114;18.040;2023-05-10T05:47:09;17.60;66.80
19168;DHT22;9716;53.114;18.040;2023-05-10T05:49:37;17.70;65.60
19168;DHT22;9716;53.114;18.040;2023-05-10T05:52:06;17.70;64.80
19168;DHT22;9716;53.114;18.040;2023-05-10T05:54:36;17.70;64.90
19168;DHT22;9716;53.114;18.040;2023-05-10T05:57:07;17.80;64.40
19168;DHT22;9716;53.114;18.040;2023-05-10T05:59:36;18.00;64.20
19168;DHT22;9716;53.114;18.040;2023-05-10T06:02:09;18.20;62.90
19168;DHT22;9716;53.114;18.040;2023-05-10T06:04:38;18.30;63.10
19168;DHT22;9716;53.114;18.040;2023-05-10T06:07:10;18.50;62.70
19168;DHT22;9716;53.114;18.040;2023-05-10T06:09:40;18.70;62.00
19168;DHT22;9716;53.114;18.040;2023-05-10T06:12:08;18.70;61.40
19168;DHT22;9716;53.114;18.040;2023-05-10T06:14:38;18.70;60.80
19168;DHT22;9716;53.114;18.040;2023-05-10T06:17:07;18.60;61.30
19168;DHT22;9716;53.114;18.040;2023-05-10T06:19:37;18.80;61.20
19168;DHT22;9716;53.114;18.040;2023-05-10T06:22:06;18.90;60.50
19168;DHT22;9716;53.114;18.040;2023-05-10T06:24:34;18.80;60.10
19168;DHT22;9716;53.114;18.040;2023-05-10T06:27:04;18.80;59.80
19168;DHT22;9716;53.114;18.040;2023-05-10T06:29:32;18.90;60.20
19168;DHT22;9716;53.114;18.040;2023-05-10T06:32:01;19.20;60.30
19168;DHT22;9716;53.114;18.040;2023-05-10T06:34:29;19.30;59.70
19168;DHT22;9716;53.114;18.040;2023-05-10T06:36:58;19.40;59.50
19168;DHT22;9716;53.114;18.040;2023-05-10T06:39:27;19.60;59.10
19168;DHT22;9716;53.114;18.040;2023-05-10T06:41:55;19.70;58.60
19168;DHT22;9716;53.114;18.040;2023-05-10T06:44:25;19.70;58.00
19168;DHT22;9716;53.114;18.040;2023-05-10T06:46:54;19.70;58.00
19168;DHT22;9716;53.114;18.040;2023-05-10T06:49:22;19.80;58.10
19168;DHT22;9716;53.114;18.040;2023-05-10T06:51:51;20.00;58.30
19168;DHT22;9716;53.114;18.040;2023-05-10T06:54:19;20.30;58.00
19168;DHT22;9716;53.114;18.040;2023-05-10T06:56:48;20.60;57.90
19168;DHT22;9716;53.114;18.040;2023-05-10T06:59:16;20.90;57.30
19168;DHT22;9716;53.114;18.040;2023-05-10T07:01:48;21.10;56.70
19168;DHT22;9716;53.114;18.040;2023-05-10T07:04:16;21.30;56.40
19168;DHT22;9716;53.114;18.040;2023-05-10T07:06:45;21.40;56.00
19168;DHT22;9716;53.114;18.040;2023-05-10T07:09:13;21.40;55.90
19168;DHT22;9716;53.114;18.040;2023-05-10T07:11:42;21.40;55.10
19168;DHT22;9716;53.114;18.040;2023-05-10T07:14:11;21.30;55.20
19168;DHT22;9716;53.114;18.040;2023-05-10T07:16:39;21.40;55.50
19168;DHT22;9716;53.114;18.040;2023-05-10T07:19:09;21.50;55.00
19168;DHT22;9716;53.114;18.040;2023-05-10T07:21:37;21.50;55.00
19168;DHT22;9716;53.114;18.040;2023-05-10T07:24:10;21.60;55.20
19168;DHT22;9716;53.114;18.040;2023-05-10T07:26:39;21.70;55.20
19168;DHT22;9716;53.114;18.040;2023-05-10T07:29:07;21.80;54.80
19168;DHT22;9716;53.114;18.040;2023-05-10T07:31:37;21.70;54.60
19168;DHT22;9716;53.114;18.040;2023-05-10T07:34:05;21.70;54.50
19168;DHT22;9716;53.114;18.040;2023-05-10T07:36:35;21.60;54.60
19168;DHT22;9716;53.114;18.040;2023-05-10T07:39:04;21.50;54.90
19168;DHT22;9716;53.114;18.040;2023-05-10T07:41:32;21.50;54.70
19168;DHT22;9716;53.114;18.040;2023-05-10T07:44:02;21.50;54.80
19168;DHT22;9716;53.114;18.040;2023-05-10T07:46:31;21.70;54.90
19168;DHT22;9716;53.114;18.040;2023-05-10T07:48:59;21.80;54.60
19168;DHT22;9716;53.114;18.040;2023-05-10T07:51:28;21.90;54.30
19168;DHT22;9716;53.114;18.040;2023-05-10T07:53:58;22.00;53.90
19168;DHT22;9716;53.114;18.040;2023-05-10T07:56:28;21.90;54.40
19168;DHT22;9716;53.114;18.040;2023-05-10T07:58:57;22.00;54.60
19168;DHT22;9716;53.114;18.040;2023-05-10T08:01:26;22.30;54.50
19168;DHT22;9716;53.114;18.040;2023-05-10T08:03:55;22.50;53.70
19168;DHT22;9716;53.114;18.040;2023-05-10T08:06:23;22.60;53.60
19168;DHT22;9716;53.114;18.040;2023-05-10T08:08:53;22.60;53.20
19168;DHT22;9716;53.114;18.040;2023-05-10T08:11:24;22.70;53.10
19168;DHT22;9716;53.114;18.040;2023-05-10T08:13:52;22.80;53.10
19168;DHT22;9716;53.114;18.040;2023-05-10T08:16:21;23.00;52.60
19168;DHT22;9716;53.114;18.040;2023-05-10T08:18:50;22.90;51.90
19168;DHT22;9716;53.114;18.040;2023-05-10T08:21:19;22.80;51.90
19168;DHT22;9716;53.114;18.040;2023-05-10T08:23:47;22.70;52.00
19168;DHT22;9716;53.114;18.040;2023-05-10T08:26:16;22.70;52.40
19168;DHT22;9716;53.114;18.040;2023-05-10T08:28:45;22.70;52.40
19168;DHT22;9716;53.114;18.040;2023-05-10T08:31:14;22.70;52.50
19168;DHT22;9716;53.114;18.040;2023-05-10T08:33:43;22.80;52.50
19168;DHT22;9716;53.114;18.040;2023-05-10T08:36:12;22.90;52.40
19168;DHT22;9716;53.114;18.040;2023-05-10T08:38:46;22.80;52.00
19168;DHT22;9716;53.114;18.040;2023-05-10T08:41:17;22.70;51.40
19168;DHT22;9716;53.114;18.040;2023-05-10T08:43:50;22.40;52.50
19168;DHT22;9716;53.114;18.040;2023-05-10T08:46:20;22.20;52.30
19168;DHT22;9716;53.114;18.040;2023-05-10T08:48:50;22.00;52.80
19168;DHT22;9716;53.114;18.040;2023-05-10T08:51:21;21.90;53.20
19168;DHT22;9716;53.114;18.040;2023-05-10T08:53:50;21.90;53.10
19168;DHT22;9716;53.114;18.040;2023-05-10T08:56:19;22.00;53.10
19168;DHT22;9716;53.114;18.040;2023-05-10T08:58:49;22.00;53.40
19168;DHT22;9716;53.114;18.040;2023-05-10T09:01:18;22.10;53.40
19168;DHT22;9716;53.114;18.040;2023-05-10T09:03:48;22.20;53.40
19168;DHT22;9716;53.114;18.040;2023-05-10T09:06:17;22.50;53.10
19168;DHT22;9716;53.114;18.040;2023-05-10T09:08:45;22.50;52.60
19168;DHT22;9716;53.114;18.040;2023-05-10T09:11:15;22.40;52.50
19168;DHT22;9716;53.114;18.040;2023-05-10T09:13:44;22.30;52.60
19168;DHT22;9716;53.114;18.040;2023-05-10T09:16:14;22.20;52.90
19168;DHT22;9716;53.114;18.040;2023-05-10T09:18:48;22.20;53.40
19168;DHT22;9716;53.114;18.040;2023-05-10T09:21:18;22.20;53.90
19168;DHT22;9716;53.114;18.040;2023-05-10T09:23:47;22.40;53.50
19168;DHT22;9716;53.114;18.040;2023-05-10T09:26:22;22.30;52.60
19168;DHT22;9716;53.114;18.040;2023-05-10T09:28:52;22.00;52.40
19168;DHT22;9716;53.114;18.040;2023-05-10T09:31:22;21.70;52.70
19168;DHT22;9716;53.114;18.040;2023-05-10T09:33:50;21.50;53.20
19168;DHT22;9716;53.114;18.040;2023-05-10T09:36:19;21.30;53.60
19168;DHT22;9716;53.114;18.040;2023-05-10T09:38:48;21.10;53.60
19168;DHT22;9716;53.114;18.040;2023-05-10T09:41:19;21.00;54.10
19168;DHT22;9716;53.114;18.040;2023-05-10T09:43:48;21.10;54.10
19168;DHT22;9716;53.114;18.040;2023-05-10T09:46:17;21.00;53.70
19168;DHT22;9716;53.114;18.040;2023-05-10T09:48:47;21.00;53.60
19168;DHT22;9716;53.114;18.040;2023-05-10T09:51:19;21.00;53.60
19168;DHT22;9716;53.114;18.040;2023-05-10T09:53:48;20.90;53.50
19168;DHT22;9716;53.114;18.040;2023-05-10T09:56:37;20.80;53.40
19168;DHT22;9716;53.114;18.040;2023-05-10T09:59:08;20.80;53.90
19168;DHT22;9716;53.114;18.040;2023-05-10T10:01:38;20.70;54.10
19168;DHT22;9716;53.114;18.040;2023-05-10T10:04:09;20.60;54.00
19168;DHT22;9716;53.114;18.040;2023-05-10T10:06:39;20.50;54.60
19168;DHT22;9716;53.114;18.040;2023-05-10T10:09:08;20.60;55.30
19168;DHT22;9716;53.114;18.040;2023-05-10T10:11:38;20.60;55.20
19168;DHT22;9716;53.114;18.040;2023-05-10T10:14:06;20.50;54.50
19168;DHT22;9716;53.114;18.040;2023-05-10T10:16:35;20.50;54.60
19168;DHT22;9716;53.114;18.040;2023-05-10T10:19:19;20.50;54.40
19168;DHT22;9716;53.114;18.040;2023-05-10T10:21:49;20.40;54.50
19168;DHT22;9716;53.114;18.040;2023-05-10T10:24:18;20.40;54.60
19168;DHT22;9716;53.114;18.040;2023-05-10T10:26:47;20.50;54.60
19168;DHT22;9716;53.114;18.040;2023-05-10T10:29:23;20.60;54.60
19168;DHT22;9716;53.114;18.040;2023-05-10T10:32:01;20.60;54.20
19168;DHT22;9716;53.114;18.040;2023-05-10T10:34:32;20.50;54.30
19168;DHT22;9716;53.114;18.040;2023-05-10T10:37:04;20.40;54.30
19168;DHT22;9716;53.114;18.040;2023-05-10T10:39:33;20.30;54.70
19168;DHT22;9716;53.114;18.040;2023-05-10T10:42:04;20.30;55.10
19168;DHT22;9716;53.114;18.040;2023-05-10T10:44:36;20.30;55.30
19168;DHT22;9716;53.114;18.040;2023-05-10T10:47:22;20.30;55.10
19168;DHT22;9716;53.114;18.040;2023-05-10T10:50:03;20.40;55.10
19168;DHT22;9716;53.114;18.040;2023-05-10T10:52:33;20.60;55.10
19168;DHT22;9716;53.114;18.040;2023-05-10T10:55:03;20.60;55.30
19168;DHT22;9716;53.114;18.040;2023-05-10T10:57:44;20.60;56.10
19168;DHT22;9716;53.114;18.040;2023-05-10T11:00:23;20.70;56.00
19168;DHT22;9716;53.114;18.040;2023-05-10T11:02:53;20.80;55.50
19168;DHT22;9716;53.114;18.040;2023-05-10T11:05:42;20.70;55.20
19168;DHT22;9716;53.114;18.040;2023-05-10T11:08:16;20.70;55.40
19168;DHT22;9716;53.114;18.040;2023-05-10T11:10:53;20.70;55.60
19168;DHT22;9716;53.114;18.040;2023-05-10T11:13:29;20.60;55.90
19168;DHT22;9716;53.114;18.040;2023-05-10T11:15:58;20.60;56.00
19168;DHT22;9716;53.114;18.040;2023-05-10T11:18:29;20.50;55.70
19168;DHT22;9716;53.114;18.040;2023-05-10T11:21:00;20.50;55.30
19168;DHT22;9716;53.114;18.040;2023-05-10T11:23:31;20.40;55.30
19168;DHT22;9716;53.114;18.040;2023-05-10T11:26:00;20.30;55.80
19168;DHT22;9716;53.114;18.040;2023-05-10T11:28:29;20.30;56.70
19168;DHT22;9716;53.114;18.040;2023-05-10T11:30:57;20.30;56.00
19168;DHT22;9716;53.114;18.040;2023-05-10T11:33:26;20.30;56.00
19168;DHT22;9716;53.114;18.040;2023-05-10T11:35:54;20.20;56.30
19168;DHT22;9716;53.114;18.040;2023-05-10T11:38:24;20.20;56.30
19168;DHT22;9716;53.114;18.040;2023-05-10T11:40:52;20.20;56.50
19168;DHT22;9716;53.114;18.040;2023-05-10T11:43:24;20.20;56.50
19168;DHT22;9716;53.114;18.040;2023-05-10T11:45:55;20.20;56.20
19168;DHT22;9716;53.114;18.040;2023-05-10T11:48:23;20.20;56.30
19168;DHT22;9716;53.114;18.040;2023-05-10T11:50:51;20.20;56.00
19168;DHT22;9716;53.114;18.040;2023-05-10T11:53:27;20.10;55.90
19168;DHT22;9716;53.114;18.040;2023-05-10T11:55:55;20.10;56.00
19168;DHT22;9716;53.114;18.040;2023-05-10T11:58:31;20.10;56.00
19168;DHT22;9716;53.114;18.040;2023-05-10T12:00:59;20.10;55.60
19168;DHT22;9716;53.114;18.040;2023-05-10T12:03:29;20.00;55.10
19168;DHT22;9716;53.114;18.040;2023-05-10T12:05:58;20.00;55.40
19168;DHT22;9716;53.114;18.040;2023-05-10T12:08:29;20.00;56.10
19168;DHT22;9716;53.114;18.040;2023-05-10T12:11:08;20.00;56.30
19168;DHT22;9716;53.114;18.040;2023-05-10T12:13:38;19.90;55.90
19168;DHT22;9716;53.114;18.040;2023-05-10T12:16:15;19.90;55.80
19168;DHT22;9716;53.114;18.040;2023-05-10T12:18:44;19.90;55.50
19168;DHT22;9716;53.114;18.040;2023-05-10T12:21:12;19.90;55.60
19168;DHT22;9716;53.114;18.040;2023-05-10T12:23:45;19.80;55.50
19168;DHT22;9716;53.114;18.040;2023-05-10T12:26:14;19.80;55.60
19168;DHT22;9716;53.114;18.040;2023-05-10T12:28:43;19.80;55.80
19168;DHT22;9716;53.114;18.040;2023-05-10T12:31:11;19.80;55.60
19168;DHT22;9716;53.114;18.040;2023-05-10T12:33:41;19.70;55.60
19168;DHT22;9716;53.114;18.040;2023-05-10T12:36:11;19.70;55.90
19168;DHT22;9716;53.114;18.040;2023-05-10T12:38:42;19.70;55.80
19168;DHT22;9716;53.114;18.040;2023-05-10T12:41:12;19.60;56.20
19168;DHT22;9716;53.114;18.040;2023-05-10T12:43:41;19.60;55.70
19168;DHT22;9716;53.114;18.040;2023-05-10T12:46:10;19.60;55.80
19168;DHT22;9716;53.114;18.040;2023-05-10T12:48:40;19.60;56.00
19168;DHT22;9716;53.114;18.040;2023-05-10T12:51:08;19.60;55.80
19168;DHT22;9716;53.114;18.040;2023-05-10T12:53:39;19.60;55.40
19168;DHT22;9716;53.114;18.040;2023-05-10T12:56:12;19.50;55.30
19168;DHT22;9716;53.114;18.040;2023-05-10T12:58:41;19.50;54.80
19168;DHT22;9716;53.114;18.040;2023-05-10T13:01:15;19.50;54.80
19168;DHT22;9716;53.114;18.040;2023-05-10T13:03:43;19.50;55.20
19168;DHT22;9716;53.114;18.040;2023-05-10T13:06:12;19.50;55.90
19168;DHT22;9716;53.114;18.040;2023-05-10T13:08:41;19.60;55.60
19168;DHT22;9716;53.114;18.040;2023-05-10T13:11:09;19.60;55.50
19168;DHT22;9716;53.114;18.040;2023-05-10T13:13:39;19.60;55.40
19168;DHT22;9716;53.114;18.040;2023-05-10T13:16:07;19.60;55.30
19168;DHT22;9716;53.114;18.040;2023-05-10T13:18:36;19.50;55.50
19168;DHT22;9716;53.114;18.040;2023-05-10T13:21:04;19.50;55.80
19168;DHT22;9716;53.114;18.040;2023-05-10T13:23:33;19.50;56.30
19168;DHT22;9716;53.114;18.040;2023-05-10T13:26:03;19.50;56.70
19168;DHT22;9716;53.114;18.040;2023-05-10T13:28:32;19.50;56.80
19168;DHT22;9716;53.114;18.040;2023-05-10T13:31:02;19.40;56.60
19168;DHT22;9716;53.114;18.040;2023-05-10T13:33:30;19.40;56.40
19168;DHT22;9716;53.114;18.040;2023-05-10T13:35:58;19.40;56.60
19168;DHT22;9716;53.114;18.040;2023-05-10T13:38:27;19.40;56.90
19168;DHT22;9716;53.114;18.040;2023-05-10T13:40:55;19.40;56.60
19168;DHT22;9716;53.114;18.040;2023-05-10T13:43:24;19.40;56.80
19168;DHT22;9716;53.114;18.040;2023-05-10T13:45:52;19.50;57.20
19168;DHT22;9716;53.114;18.040;2023-05-10T13:48:22;19.50;57.00
19168;DHT22;9716;53.114;18.040;2023-05-10T13:50:50;19.50;57.00
19168;DHT22;9716;53.114;18.040;2023-05-10T13:53:19;19.50;57.00
19168;DHT22;9716;53.114;18.040;2023-05-10T13:55:47;19.40;57.00
19168;DHT22;9716;53.114;18.040;2023-05-10T13:58:16;19.40;57.40
19168;DHT22;9716;53.114;18.040;2023-05-10T14:00:44;19.40;57.60
19168;DHT22;9716;53.114;18.040;2023-05-10T14:03:13;19.40;57.80
19168;DHT22;9716;53.114;18.040;2023-05-10T14:05:43;19.40;57.70
19168;DHT22;9716;53.114;18.040;2023-05-10T14:08:12;19.40;57.60
19168;DHT22;9716;53.114;18.040;2023-05-10T14:10:41;19.40;57.70
19168;DHT22;9716;53.114;18.040;2023-05-10T14:13:10;19.50;57.80
19168;DHT22;9716;53.114;18.040;2023-05-10T14:15:39;19.40;57.60
19168;DHT22;9716;53.114;18.040;2023-05-10T14:18:07;19.40;57.70
19168;DHT22;9716;53.114;18.040;2023-05-10T14:20:35;19.40;57.80
19168;DHT22;9716;53.114;18.040;2023-05-10T14:23:05;19.40;57.90
19168;DHT22;9716;53.114;18.040;2023-05-10T14:25:37;19.40;58.70
19168;DHT22;9716;53.114;18.040;2023-05-10T14:28:06;19.40;58.20
19168;DHT22;9716;53.114;18.040;2023-05-10T14:30:34;19.50;58.30
19168;DHT22;9716;53.114;18.040;2023-05-10T14:33:03;19.50;58.40
19168;DHT22;9716;53.114;18.040;2023-05-10T14:35:32;19.50;58.30
19168;DHT22;9716;53.114;18.040;2023-05-10T14:38:01;19.50;58.20
19168;DHT22;9716;53.114;18.040;2023-05-10T14:40:31;19.50;58.20
19168;DHT22;9716;53.114;18.040;2023-05-10T14:43:00;19.50;58.10
19168;DHT22;9716;53.114;18.040;2023-05-10T14:45:28;19.50;58.00
19168;DHT22;9716;53.114;18.040;2023-05-10T14:47:57;19.50;58.20
19168;DHT22;9716;53.114;18.040;2023-05-10T14:50:26;19.60;58.40
19168;DHT22;9716;53.114;18.040;2023-05-10T14:53:03;19.60;58.60
19168;DHT22;9716;53.114;18.040;2023-05-10T14:55:33;19.60;58.30
19168;DHT22;9716;53.114;18.040;2023-05-10T14:58:02;19.60;58.20
19168;DHT22;9716;53.114;18.040;2023-05-10T15:00:31;19.60;58.10
19168;DHT22;9716;53.114;18.040;2023-05-10T15:03:00;19.50;57.90
19168;DHT22;9716;53.114;18.040;2023-05-10T15:05:28;19.50;58.20
19168;DHT22;9716;53.114;18.040;2023-05-10T15:07:57;19.50;58.10
19168;DHT22;9716;53.114;18.040;2023-05-10T15:10:26;19.40;58.10
19168;DHT22;9716;53.114;18.040;2023-05-10T15:12:57;19.40;58.10
19168;DHT22;9716;53.114;18.040;2023-05-10T15:15:26;19.30;58.10
19168;DHT22;9716;53.114;18.040;2023-05-10T15:17:54;19.30;58.20
19168;DHT22;9716;53.114;18.040;2023-05-10T15:20:22;19.30;58.30
19168;DHT22;9716;53.114;18.040;2023-05-10T15:22:51;19.30;58.30
19168;DHT22;9716;53.114;18.040;2023-05-10T15:25:20;19.30;58.50
19168;DHT22;9716;53.114;18.040;2023-05-10T15:27:48;19.20;58.20
19168;DHT22;9716;53.114;18.040;2023-05-10T15:30:18;19.20;58.10
19168;DHT22;9716;53.114;18.040;2023-05-10T15:32:46;19.20;58.10
19168;DHT22;9716;53.114;18.040;2023-05-10T15:35:15;19.20;58.00
19168;DHT22;9716;53.114;18.040;2023-05-10T15:37:45;19.10;58.00
19168;DHT22;9716;53.114;18.040;2023-05-10T15:40:13;19.10;58.20
19168;DHT22;9716;53.114;18.040;2023-05-10T15:42:42;19.00;58.00
19168;DHT22;9716;53.114;18.040;2023-05-10T15:45:11;19.00;58.10
19168;DHT22;9716;53.114;18.040;2023-05-10T15:47:40;19.00;58.30
19168;DHT22;9716;53.114;18.040;2023-05-10T15:50:09;19.00;58.40
19168;DHT22;9716;53.114;18.040;2023-05-10T15:52:38;19.00;58.40